createdAt,value
2022-11-05T00:02:31.994Z,99502.19
2022-11-05T00:05:53.039Z,99508.91
2022-11-05T00:09:14.850Z,99512.44
2022-11-05T00:12:35.967Z,99509.47
2022-11-05T00:15:57.528Z,99510.31
2022-11-05T00:19:10.618Z,99510.06
2022-11-05T00:22:31.738Z,99495.94
2022-11-05T00:25:34.671Z,99491.84
2022-11-05T00:28:37.979Z,99488.88
2022-11-05T00:31:41.310Z,99483.53
2022-11-05T00:34:43.539Z,99494.72
2022-11-05T00:37:50.101Z,99480.53
2022-11-05T00:40:52.888Z,99475.84
2022-11-05T00:44:14.131Z,99491.13
2022-11-05T00:47:34.589Z,99503.25
2022-11-05T00:50:37.163Z,99504.25
2022-11-05T00:53:39.364Z,99504.09
2022-11-05T00:56:41.767Z,99507.81
2022-11-05T00:59:44.022Z,99507.38
2022-11-05T01:02:46.802Z,99507.84
2022-11-05T01:05:55.882Z,99508.63
2022-11-05T01:08:58.357Z,99512.31
2022-11-05T01:12:00.495Z,99508.28
2022-11-05T01:15:03.143Z,99501.00
2022-11-05T01:18:05.889Z,99503.88
2022-11-05T01:21:14.459Z,99505.06
2022-11-05T01:24:16.586Z,99506.00
2022-11-05T01:27:19.267Z,99504.22
2022-11-05T01:30:21.874Z,99508.03
2022-11-05T01:33:25.273Z,99508.25
2022-11-05T01:36:27.448Z,99505.63
2022-11-05T01:39:29.950Z,99507.19
2022-11-05T01:42:32.607Z,99513.75
2022-11-05T01:45:35.498Z,99529.00
2022-11-05T01:48:38.058Z,99532.72
2022-11-05T01:51:42.352Z,99540.69
2022-11-05T01:54:47.192Z,99537.72
2022-11-05T01:57:52.056Z,99541.50
2022-11-05T02:00:56.806Z,99551.34
2022-11-05T02:04:04.974Z,99552.47
2022-11-05T02:07:09.583Z,99546.22
2022-11-05T02:10:14.290Z,99541.69
2022-11-05T02:13:16.796Z,99548.50
2022-11-05T02:16:41.385Z,99546.34
2022-11-05T02:20:11.841Z,99546.53
2022-11-05T02:23:26.544Z,99542.09
2022-11-05T02:27:06.410Z,99551.31
2022-11-05T02:30:49.671Z,99543.94
2022-11-05T02:34:13.637Z,99551.22
2022-11-05T02:37:49.714Z,99543.37
2022-11-05T02:41:37.162Z,99549.38
2022-11-05T02:44:43.005Z,99551.72
2022-11-05T02:47:50.657Z,99553.88
2022-11-05T02:51:08.846Z,99554.69
2022-11-05T02:54:28.821Z,99560.47
2022-11-05T02:57:36.203Z,99555.44
2022-11-05T03:00:46.882Z,99568.69
2022-11-05T03:03:53.561Z,99570.53
2022-11-05T03:07:14.957Z,99568.97
2022-11-05T03:10:38.778Z,99571.66
2022-11-05T03:13:54.234Z,99568.59
2022-11-05T03:17:07.982Z,99575.50
2022-11-05T03:20:21.896Z,99575.19
2022-11-05T03:23:43.329Z,99584.88
2022-11-05T03:26:51.838Z,99586.62
2022-11-05T03:30:00.912Z,99593.72
2022-11-05T03:33:19.099Z,99601.44
2022-11-05T03:36:45.062Z,99601.03
2022-11-05T03:39:52.109Z,99599.03
2022-11-05T03:42:58.025Z,99603.59
2022-11-05T03:46:10.888Z,99594.12
2022-11-05T03:49:19.190Z,99598.44
2022-11-05T03:52:26.783Z,99604.72
2022-11-05T03:55:47.613Z,99600.75
2022-11-05T03:58:56.025Z,99597.97
2022-11-05T04:02:02.731Z,99611.75
2022-11-05T04:05:05.745Z,99603.22
2022-11-05T04:08:27.877Z,99601.44
2022-11-05T04:11:49.129Z,99594.72
2022-11-05T04:14:51.281Z,99584.19
2022-11-05T04:17:53.996Z,99582.00
2022-11-05T04:21:14.851Z,99587.19
2022-11-05T04:24:17.466Z,99590.41
2022-11-05T04:27:19.758Z,99584.28
2022-11-05T04:30:23.112Z,99590.59
2022-11-05T04:33:25.333Z,99590.53
2022-11-05T04:36:28.131Z,99587.41
2022-11-05T04:39:30.298Z,99583.47
2022-11-05T04:42:32.810Z,99576.72
2022-11-05T04:45:36.201Z,99575.06
2022-11-05T04:48:39.090Z,99579.34
2022-11-05T04:51:42.227Z,99574.84
2022-11-05T04:54:44.859Z,99581.41
2022-11-05T04:57:56.570Z,99589.28
2022-11-05T05:01:01.182Z,99587.31
2022-11-05T05:04:03.531Z,99592.19
2022-11-05T05:07:06.166Z,99584.31
2022-11-05T05:10:09.869Z,99588.47
2022-11-05T05:13:12.705Z,99589.72
2022-11-05T05:16:22.285Z,99585.25
2022-11-05T05:19:25.628Z,99589.16
2022-11-05T05:22:28.279Z,99587.88
2022-11-05T05:25:31.055Z,99594.47
2022-11-05T05:28:33.531Z,99595.38
2022-11-05T05:31:38.546Z,99594.72
2022-11-05T05:34:40.811Z,99600.31
2022-11-05T05:37:44.416Z,99607.34
2022-11-05T05:40:46.711Z,99615.66
2022-11-05T05:43:49.660Z,99623.81
2022-11-05T05:46:54.753Z,99617.03
2022-11-05T05:49:57.148Z,99614.81
2022-11-05T05:53:00.310Z,99618.72
2022-11-05T05:56:04.856Z,99630.28
2022-11-05T05:59:07.207Z,99640.16
2022-11-05T06:02:11.016Z,99650.63
2022-11-05T06:05:13.955Z,99655.31
2022-11-05T06:08:16.117Z,99669.66
2022-11-05T06:11:18.678Z,99669.34
2022-11-05T06:14:20.902Z,99673.00
2022-11-05T06:17:23.432Z,99677.06
2022-11-05T06:20:25.718Z,99676.56
2022-11-05T06:23:30.995Z,99669.25
2022-11-05T06:26:33.318Z,99672.25
2022-11-05T06:29:35.903Z,99679.31
2022-11-05T06:32:38.205Z,99690.69
2022-11-05T06:35:40.774Z,99689.09
2022-11-05T06:38:43.380Z,99690.56
2022-11-05T06:42:12.122Z,99682.63
2022-11-05T06:45:08.828Z,99682.94
2022-11-05T06:48:11.483Z,99682.31
2022-11-05T06:51:13.824Z,99680.87
2022-11-05T06:54:16.579Z,99696.66
2022-11-05T06:57:18.783Z,99698.53
2022-11-05T07:00:22.419Z,99696.31
2022-11-05T07:03:24.658Z,99702.81
2022-11-05T07:06:27.719Z,99705.00
2022-11-05T07:09:30.071Z,99702.25
2022-11-05T07:12:32.696Z,99701.38
2022-11-05T07:15:35.473Z,99709.25
2022-11-05T07:18:38.171Z,99699.44
2022-11-05T07:21:41.048Z,99706.84
2022-11-05T07:24:47.150Z,99706.84
2022-11-05T07:27:49.422Z,99714.34
2022-11-05T07:30:52.382Z,99717.13
2022-11-05T07:33:54.639Z,99720.94
2022-11-05T07:36:59.164Z,99711.22
2022-11-05T07:40:03.526Z,99718.09
2022-11-05T07:43:06.100Z,99718.75
2022-11-05T07:46:12.732Z,99711.41
2022-11-05T07:49:17.367Z,99720.00
2022-11-05T07:52:19.987Z,99719.34
2022-11-05T07:55:22.905Z,99718.66
2022-11-05T07:58:25.283Z,99726.31
2022-11-05T08:01:28.862Z,99717.19
2022-11-05T08:04:31.825Z,99712.19
2022-11-05T08:07:34.364Z,99713.06
2022-11-05T08:10:38.341Z,99707.22
2022-11-05T08:13:42.667Z,99710.44
2022-11-05T08:16:45.409Z,99710.44
2022-11-05T08:19:48.021Z,99702.94
2022-11-05T08:22:50.629Z,99708.66
2022-11-05T08:25:53.633Z,99699.84
2022-11-05T08:28:56.366Z,99693.19
2022-11-05T08:31:58.809Z,99681.97
2022-11-05T08:35:01.978Z,99692.25
2022-11-05T08:38:06.745Z,99693.44
2022-11-05T08:41:09.750Z,99686.00
2022-11-05T08:44:12.394Z,99700.41
2022-11-05T08:47:15.481Z,99711.56
2022-11-05T08:50:18.188Z,99696.22
2022-11-05T08:53:21.077Z,99707.31
2022-11-05T08:56:23.812Z,99704.50
2022-11-05T08:59:27.167Z,99712.53
2022-11-05T09:02:29.485Z,99722.06
2022-11-05T09:05:38.109Z,99727.56
2022-11-05T09:08:40.385Z,99728.97
2022-11-05T09:12:10.536Z,99728.53
2022-11-05T09:15:07.170Z,99725.19
2022-11-05T09:18:12.927Z,99741.91
2022-11-05T09:21:15.187Z,99732.19
2022-11-05T09:24:17.724Z,99734.72
2022-11-05T09:27:19.951Z,99738.69
2022-11-05T09:30:22.447Z,99741.41
2022-11-05T09:33:26.644Z,99733.87
2022-11-05T09:36:29.236Z,99742.50
2022-11-05T09:39:31.594Z,99735.78
2022-11-05T09:42:46.143Z,99739.28
2022-11-05T09:45:53.238Z,99734.84
2022-11-05T09:49:03.406Z,99729.22
2022-11-05T09:52:11.895Z,99718.97
2022-11-05T09:55:20.997Z,99717.41
2022-11-05T09:58:29.379Z,99721.09
2022-11-05T10:01:34.372Z,99737.28
2022-11-05T10:04:38.351Z,99735.31
2022-11-05T10:07:50.362Z,99743.69
2022-11-05T10:11:02.443Z,99738.25
2022-11-05T10:14:20.972Z,99741.25
2022-11-05T10:17:28.634Z,99740.31
2022-11-05T10:20:39.543Z,99741.66
2022-11-05T10:23:42.684Z,99735.19
2022-11-05T10:26:50.757Z,99737.56
2022-11-05T10:29:53.724Z,99743.38
2022-11-05T10:33:00.222Z,99724.44
2022-11-05T10:36:06.015Z,99738.75
2022-11-05T10:39:17.483Z,99734.78
2022-11-05T10:42:37.468Z,99732.09
2022-11-05T10:45:50.093Z,99733.59
2022-11-05T10:49:24.659Z,99741.41
2022-11-05T10:52:39.630Z,99748.69
2022-11-05T10:55:48.772Z,99744.88
2022-11-05T10:58:55.345Z,99757.41
2022-11-05T11:02:00.604Z,99770.00
2022-11-05T11:05:03.520Z,99760.50
2022-11-05T11:08:08.990Z,99766.94
2022-11-05T11:11:13.900Z,99766.94
2022-11-05T11:14:16.767Z,99775.06
2022-11-05T11:17:29.631Z,99774.22
2022-11-05T11:20:33.096Z,99772.91
2022-11-05T11:23:40.952Z,99767.56
2022-11-05T11:26:43.912Z,99765.31
2022-11-05T11:29:50.601Z,99764.63
2022-11-05T11:32:58.581Z,99755.75
2022-11-05T11:36:01.852Z,99767.59
2022-11-05T11:39:07.229Z,99772.66
2022-11-05T11:42:28.055Z,99774.59
2022-11-05T11:45:39.104Z,99768.12
2022-11-05T11:48:42.201Z,99770.91
2022-11-05T11:51:50.017Z,99773.56
2022-11-05T11:54:53.261Z,99774.44
2022-11-05T11:58:07.078Z,99764.81
2022-11-05T12:01:09.319Z,99773.78
2022-11-05T12:04:46.184Z,99775.34
2022-11-05T12:07:53.201Z,99774.06
2022-11-05T12:11:16.023Z,99771.47
2022-11-05T12:14:30.248Z,99770.00
2022-11-05T12:17:35.897Z,99771.81
2022-11-05T12:20:38.227Z,99768.06
2022-11-05T12:23:49.534Z,99779.00
2022-11-05T12:26:59.618Z,99790.53
2022-11-05T12:30:11.680Z,99803.78
2022-11-05T12:33:38.955Z,99803.75
2022-11-05T12:36:55.178Z,99811.41
2022-11-05T12:40:31.687Z,99812.22
2022-11-05T12:43:49.695Z,99800.03
2022-11-05T12:47:13.474Z,99811.19
2022-11-05T12:50:38.341Z,99816.41
2022-11-05T12:53:50.429Z,99821.09
2022-11-05T12:56:57.963Z,99824.19
2022-11-05T13:00:08.803Z,99826.91
2022-11-05T13:03:49.498Z,99826.59
2022-11-05T13:06:55.536Z,99848.28
2022-11-05T13:10:17.149Z,99831.13
2022-11-05T13:13:29.272Z,99831.84
2022-11-05T13:16:43.462Z,99849.78
2022-11-05T13:19:59.828Z,99849.69
2022-11-05T13:23:13.750Z,99849.31
2022-11-05T13:26:39.542Z,99852.97
2022-11-05T13:29:49.584Z,99851.56
2022-11-05T13:33:01.848Z,99857.00
2022-11-05T13:36:32.831Z,99857.75
2022-11-05T13:39:38.273Z,99855.97
2022-11-05T13:43:08.338Z,99846.03
2022-11-05T13:46:26.350Z,99848.25
2022-11-05T13:49:51.425Z,99852.19
2022-11-05T13:53:33.942Z,99856.91
2022-11-05T13:56:56.039Z,99858.13
2022-11-05T14:00:12.731Z,99859.19
2022-11-05T14:03:21.267Z,99861.75
2022-11-05T14:06:27.696Z,99864.63
2022-11-05T14:09:30.722Z,99863.78
2022-11-05T14:12:36.996Z,99854.09
2022-11-05T14:15:39.809Z,99857.00
2022-11-05T14:18:45.521Z,99864.63
2022-11-05T14:21:53.117Z,99856.84
2022-11-05T14:24:55.598Z,99862.00
2022-11-05T14:28:00.984Z,99867.28
2022-11-05T14:31:20.430Z,99881.47
2022-11-05T14:34:41.686Z,99877.19
2022-11-05T14:37:57.821Z,99875.78
2022-11-05T14:41:02.725Z,99876.03
2022-11-05T14:44:10.900Z,99881.16
2022-11-05T14:47:21.858Z,99888.13
2022-11-05T14:50:36.294Z,99882.50
2022-11-05T14:53:40.414Z,99886.94
2022-11-05T14:56:57.653Z,99887.16
2022-11-05T15:00:00.946Z,99894.09
2022-11-05T15:03:25.210Z,99893.97
2022-11-05T15:06:36.488Z,99893.25
2022-11-05T15:09:47.854Z,99887.88
2022-11-05T15:13:02.604Z,99897.06
2022-11-05T15:16:07.667Z,99894.53
2022-11-05T15:19:21.414Z,99904.44
2022-11-05T15:22:35.829Z,99899.41
2022-11-05T15:25:47.738Z,99905.03
2022-11-05T15:28:55.247Z,99903.16
2022-11-05T15:31:59.227Z,99902.41
2022-11-05T15:35:01.517Z,99912.09
2022-11-05T15:38:26.961Z,99918.91
2022-11-05T15:41:33.954Z,99910.16
2022-11-05T15:44:42.417Z,99913.53
2022-11-05T15:47:46.444Z,99929.41
2022-11-05T15:50:48.944Z,99931.59
2022-11-05T15:57:22.878Z,99936.44
2022-11-05T16:00:27.804Z,99931.41
2022-11-05T16:03:37.874Z,99928.56
2022-11-05T16:06:42.824Z,99938.13
2022-11-05T16:10:02.876Z,99942.31
2022-11-05T16:13:41.630Z,99947.59
2022-11-05T16:16:45.415Z,99950.53
2022-11-05T16:19:48.863Z,99953.91
2022-11-05T16:22:54.560Z,99961.06
2022-11-05T16:25:56.830Z,99965.53
2022-11-05T16:29:10.636Z,99970.53
2022-11-05T16:32:31.023Z,99977.44
2022-11-05T16:35:38.954Z,99978.94
2022-11-05T16:38:41.144Z,99982.31
2022-11-05T16:41:44.142Z,99979.03
2022-11-05T16:44:46.719Z,99983.19
2022-11-05T16:47:50.009Z,99991.69
2022-11-05T16:50:52.410Z,99986.00
2022-11-05T16:53:55.035Z,99992.38
2022-11-05T16:56:57.399Z,99991.50
2022-11-05T17:00:00.901Z,99995.00
2022-11-05T17:03:04.196Z,99993.81
2022-11-05T17:06:07.281Z,99999.75
2022-11-05T17:09:09.707Z,100001.03
2022-11-05T17:12:12.594Z,100006.06
2022-11-05T17:15:22.203Z,100019.47
2022-11-05T17:18:26.498Z,100008.19
2022-11-05T17:21:28.973Z,100016.47
2022-11-05T17:24:31.474Z,100022.09
2022-11-05T17:27:33.673Z,100021.13
2022-11-05T17:30:40.271Z,100026.28
2022-11-05T17:33:43.931Z,100026.13
2022-11-05T17:36:46.430Z,100025.41
2022-11-05T17:39:49.069Z,100024.41
2022-11-05T17:42:52.369Z,100026.59
2022-11-05T17:45:57.517Z,100027.69
2022-11-05T17:49:02.833Z,100027.47
2022-11-05T17:52:05.305Z,100034.78
2022-11-05T17:55:16.741Z,100035.94
2022-11-05T17:58:19.780Z,100035.56
2022-11-05T18:01:31.156Z,100032.50
2022-11-05T18:04:34.136Z,100040.50
2022-11-05T18:07:36.884Z,100040.28
2022-11-05T18:10:40.891Z,100045.13
2022-11-05T18:13:43.113Z,100042.62
2022-11-05T18:16:46.126Z,100045.34
2022-11-05T18:19:48.875Z,100057.00
2022-11-05T18:22:51.832Z,100057.81
2022-11-05T18:25:54.130Z,100068.31
2022-11-05T18:29:00.158Z,100069.75
2022-11-05T18:32:02.876Z,100078.25
2022-11-05T18:35:06.732Z,100077.53
2022-11-05T18:38:09.217Z,100084.41
2022-11-05T18:41:11.918Z,100083.44
2022-11-05T18:44:16.639Z,100088.97
2022-11-05T18:47:21.237Z,100092.34
2022-11-05T18:50:23.393Z,100098.34
2022-11-05T18:53:27.436Z,100100.34
2022-11-05T18:56:29.771Z,100102.81
2022-11-05T18:59:38.607Z,100116.59
2022-11-05T19:02:41.653Z,100116.06
2022-11-05T19:05:44.657Z,100122.91
2022-11-05T19:08:47.282Z,100133.69
2022-11-05T19:11:51.189Z,100131.81
2022-11-05T19:14:56.728Z,100133.59
2022-11-05T19:18:03.768Z,100132.50
2022-11-05T19:21:16.033Z,100135.75
2022-11-05T19:24:18.986Z,100143.69
2022-11-05T19:27:21.202Z,100145.34
2022-11-05T19:30:24.302Z,100139.88
2022-11-05T19:33:26.696Z,100147.75
2022-11-05T19:36:29.969Z,100151.44
2022-11-05T19:39:32.145Z,100150.06
2022-11-05T19:42:35.141Z,100156.53
2022-11-05T19:45:45.459Z,100161.19
2022-11-05T19:48:48.554Z,100168.75
2022-11-05T19:51:51.126Z,100163.13
2022-11-05T19:54:53.793Z,100170.59
2022-11-05T19:57:56.349Z,100179.28
2022-11-05T20:00:58.819Z,100182.34
2022-11-05T20:04:02.491Z,100188.53
2022-11-05T20:07:05.071Z,100194.16
2022-11-05T20:10:08.279Z,100188.28
2022-11-05T20:13:14.315Z,100194.72
2022-11-05T20:16:27.099Z,100198.59
2022-11-05T20:19:29.485Z,100198.47
2022-11-05T20:22:32.756Z,100200.28
2022-11-05T20:25:35.066Z,100204.38
2022-11-05T20:28:39.040Z,100210.59
2022-11-05T20:31:41.569Z,100221.56
2022-11-05T20:34:44.673Z,100227.31
2022-11-05T20:37:51.228Z,100223.09
2022-11-05T20:40:56.961Z,100225.84
2022-11-05T20:43:59.417Z,100224.91
2022-11-05T20:47:02.018Z,100221.97
2022-11-05T20:50:05.094Z,100230.25
2022-11-05T20:53:08.483Z,100228.97
2022-11-05T20:56:19.045Z,100232.06
2022-11-05T20:59:21.813Z,100235.91
2022-11-05T21:02:24.330Z,100235.09
2022-11-05T21:05:31.257Z,100241.03
2022-11-05T21:08:36.945Z,100240.63
2022-11-05T21:11:58.791Z,100237.59
2022-11-05T21:15:01.012Z,100244.00
2022-11-05T21:18:03.667Z,100242.84
2022-11-05T21:21:08.347Z,100241.16
2022-11-05T21:24:11.243Z,100249.75
2022-11-05T21:27:13.447Z,100249.66
2022-11-05T21:30:16.185Z,100246.72
2022-11-05T21:33:18.996Z,100245.25
2022-11-05T21:36:21.556Z,100246.84
2022-11-05T21:39:27.822Z,100254.41
2022-11-05T21:42:31.204Z,100246.00
2022-11-05T21:45:33.470Z,100249.03
2022-11-05T21:48:36.839Z,100248.13
2022-11-05T21:51:57.741Z,100252.28
2022-11-05T21:55:19.331Z,100253.09
2022-11-05T21:58:40.104Z,100255.56
2022-11-05T22:01:42.699Z,100260.97
2022-11-05T22:04:48.014Z,100254.06
2022-11-05T22:07:50.483Z,100250.37
2022-11-05T22:10:53.323Z,100256.91
2022-11-05T22:13:55.512Z,100251.31
2022-11-05T22:16:58.744Z,100260.13
2022-11-05T22:20:01.059Z,100258.03
2022-11-05T22:23:07.335Z,100261.13
2022-11-05T22:26:14.423Z,100258.72
2022-11-05T22:29:17.760Z,100264.16
2022-11-05T22:32:20.369Z,100261.13
2022-11-05T22:35:22.922Z,100260.59
2022-11-05T22:38:25.128Z,100264.78
2022-11-05T22:41:28.251Z,100255.41
2022-11-05T22:44:30.460Z,100266.25
2022-11-05T22:47:33.488Z,100267.00
2022-11-05T22:50:35.662Z,100268.56
2022-11-05T22:53:40.007Z,100268.88
2022-11-05T22:56:42.780Z,100266.16
2022-11-05T22:59:45.721Z,100275.09
2022-11-05T23:02:48.087Z,100273.16
2022-11-05T23:06:27.672Z,100273.72
2022-11-05T23:09:53.030Z,100272.72
2022-11-05T23:12:55.933Z,100273.06
2022-11-05T23:16:16.337Z,100280.34
2022-11-05T23:19:38.437Z,100280.19
2022-11-05T23:22:59.423Z,100282.09
2022-11-05T23:26:24.869Z,100284.19
2022-11-05T23:29:27.550Z,100289.66
2022-11-05T23:32:32.032Z,100284.53
2022-11-05T23:35:53.429Z,100286.34
2022-11-05T23:38:55.833Z,100288.69
2022-11-05T23:42:16.612Z,100292.34
2022-11-05T23:45:37.668Z,100291.09
2022-11-05T23:48:39.846Z,100295.66
2022-11-05T23:51:42.614Z,100288.22
2022-11-05T23:54:46.746Z,100295.63
2022-11-05T23:57:49.577Z,100291.50
